sensor_id;sensor_type;location;lat;lon;timestamp;P1;P2;P0
55857;PMS7003;41779;52.360;31.026;2024-02-21T00:00:07;21;16.2;11
55857;PMS7003;41779;52.360;31.026;2024-02-21T00:05:07;24;16.2;12.2
55857;PMS7003;41779;52.360;31.026;2024-02-21T00:09:52;24;16.2;12.2
55857;PMS7003;41779;52.360;31.026;2024-02-21T00:15:07;20.4;14.6;11.4
55857;PMS7003;41779;52.360;31.026;2024-02-21T00:19:14;20.4;14.6;11.4
55857;PMS7003;41779;52.360;31.026;2024-02-21T00:24:14;17.2;14.2;10.6
55857;PMS7003;41779;52.360;31.026;2024-02-21T00:29:30;20.5;14;10.5
55857;PMS7003;41779;52.360;31.026;2024-02-21T00:34:26;21.8;14.8;10.6
55857;PMS7003;41779;52.360;31.026;2024-02-21T00:39:40;20.2;14.8;11.8
55857;PMS7003;41779;52.360;31.026;2024-02-21T00:44:36;21;13.8;10.2
55857;PMS7003;41779;52.360;31.026;2024-02-21T00:49:22;18.6;13.6;11
55857;PMS7003;41779;52.360;31.026;2024-02-21T00:55:05;17.6;14.2;10.6
55857;PMS7003;41779;52.360;31.026;2024-02-21T00:59:50;17.6;14.2;10.6
55857;PMS7003;41779;52.360;31.026;2024-02-21T01:04:22;19.2;13;9.8
55857;PMS7003;41779;52.360;31.026;2024-02-21T01:09:14;19.6;15;9.2
55857;PMS7003;41779;52.360;31.026;2024-02-21T01:14:45;18.4;15.4;10.8
55857;PMS7003;41779;52.360;31.026;2024-02-21T01:19:54;17;12.8;10.4
55857;PMS7003;41779;52.360;31.026;2024-02-21T01:24:22;20.2;14.8;11
55857;PMS7003;41779;52.360;31.026;2024-02-21T01:29:54;18.5;16;11.3
55857;PMS7003;41779;52.360;31.026;2024-02-21T01:34:16;19.8;15.4;11.6
55857;PMS7003;41779;52.360;31.026;2024-02-21T01:40:07;22.6;16;11.6
55857;PMS7003;41779;52.360;31.026;2024-02-21T01:44:53;22.6;16;11.6
55857;PMS7003;41779;52.360;31.026;2024-02-21T01:50:07;20;15.4;10
55857;PMS7003;41779;52.360;31.026;2024-02-21T01:54:22;20;15.4;10
55857;PMS7003;41779;52.360;31.026;2024-02-21T01:59:15;22;15.6;9.6
55857;PMS7003;41779;52.360;31.026;2024-02-21T02:04:23;21;15.4;10.6
55857;PMS7003;41779;52.360;31.026;2024-02-21T02:09:34;20.4;12.8;9
55857;PMS7003;41779;52.360;31.026;2024-02-21T02:14:14;16.4;13.8;11
55857;PMS7003;41779;52.360;31.026;2024-02-21T02:19:44;18.6;14.2;11
55857;PMS7003;41779;52.360;31.026;2024-02-21T02:24:14;17.8;12.8;9.8
55857;PMS7003;41779;52.360;31.026;2024-02-21T02:30:05;19.4;13.8;10.2
55857;PMS7003;41779;52.360;31.026;2024-02-21T02:34:51;19.4;13.8;10.2
55857;PMS7003;41779;52.360;31.026;2024-02-21T02:39:31;22.2;15.4;10.8
55857;PMS7003;41779;52.360;31.026;2024-02-21T02:44:43;18.4;14.4;10.4
55857;PMS7003;41779;52.360;31.026;2024-02-21T02:49:45;19.6;15;11.2
55857;PMS7003;41779;52.360;31.026;2024-02-21T02:55:07;19.2;14.6;10.8
55857;PMS7003;41779;52.360;31.026;2024-02-21T02:59:35;19.2;14.6;10.8
55857;PMS7003;41779;52.360;31.026;2024-02-21T03:05:01;21.8;15.6;11.6
55857;PMS7003;41779;52.360;31.026;2024-02-21T03:09:25;23;17.4;11.2
55857;PMS7003;41779;52.360;31.026;2024-02-21T03:15:05;18.6;16;11
55857;PMS7003;41779;52.360;31.026;2024-02-21T03:19:55;18.6;16;11
55857;PMS7003;41779;52.360;31.026;2024-02-21T03:24:55;21.2;18;11.6
55857;PMS7003;41779;52.360;31.026;2024-02-21T03:29:41;22.5;16.5;12
55857;PMS7003;41779;52.360;31.026;2024-02-21T03:34:15;21.2;16.4;11.4
55857;PMS7003;41779;52.360;31.026;2024-02-21T03:39:41;24.8;20.6;13.6
55857;PMS7003;41779;52.360;31.026;2024-02-21T03:44:15;24.8;20;13.8
55857;PMS7003;41779;52.360;31.026;2024-02-21T03:49:45;23.8;17.2;13.2
55857;PMS7003;41779;52.360;31.026;2024-02-21T03:54:45;25.4;18.6;12.4
55857;PMS7003;41779;52.360;31.026;2024-02-21T03:59:53;22;17;11.4
55857;PMS7003;41779;52.360;31.026;2024-02-21T04:05:05;23.4;16.4;12
55857;PMS7003;41779;52.360;31.026;2024-02-21T04:10:05;19.2;16;11.8
55857;PMS7003;41779;52.360;31.026;2024-02-21T04:14:23;19.2;16;11.8
55857;PMS7003;41779;52.360;31.026;2024-02-21T04:19:47;21.4;17;11
55857;PMS7003;41779;52.360;31.026;2024-02-21T04:25:05;29.5;21.5;13.3
55857;PMS7003;41779;52.360;31.026;2024-02-21T04:29:55;29.5;21.5;13.3
55857;PMS7003;41779;52.360;31.026;2024-02-21T04:34:23;23.4;17.6;13.6
55857;PMS7003;41779;52.360;31.026;2024-02-21T04:39:17;22.2;16.6;11.8
55857;PMS7003;41779;52.360;31.026;2024-02-21T04:44:27;23.2;18.4;12.4
55857;PMS7003;41779;52.360;31.026;2024-02-21T04:50:05;17.8;13;9.2
55857;PMS7003;41779;52.360;31.026;2024-02-21T04:54:33;17.8;13;9.2
55857;PMS7003;41779;52.360;31.026;2024-02-21T05:00:05;16;11;8.2
55857;PMS7003;41779;52.360;31.026;2024-02-21T05:04:23;16;11;8.2
55857;PMS7003;41779;52.360;31.026;2024-02-21T05:09:33;12.6;8.8;7.2
55857;PMS7003;41779;52.360;31.026;2024-02-21T05:14:47;11.6;8;6.4
55857;PMS7003;41779;52.360;31.026;2024-02-21T05:19:31;12.2;9.4;6.8
55857;PMS7003;41779;52.360;31.026;2024-02-21T05:24:39;10.6;7.8;7.2
55857;PMS7003;41779;52.360;31.026;2024-02-21T05:29:49;13;9.8;7.2
55857;PMS7003;41779;52.360;31.026;2024-02-21T05:34:21;13.8;9.3;7
55857;PMS7003;41779;52.360;31.026;2024-02-21T05:39:41;14.6;9.2;7.4
55857;PMS7003;41779;52.360;31.026;2024-02-21T05:45:05;15.4;11;7.6
55857;PMS7003;41779;52.360;31.026;2024-02-21T05:49:51;15.4;11;7.6
55857;PMS7003;41779;52.360;31.026;2024-02-21T05:54:51;15.6;9.4;7.8
55857;PMS7003;41779;52.360;31.026;2024-02-21T05:59:49;13.2;9.8;8
55857;PMS7003;41779;52.360;31.026;2024-02-21T06:04:53;14.2;10.2;7.4
55857;PMS7003;41779;52.360;31.026;2024-02-21T06:09:41;9.6;8.4;6.8
55857;PMS7003;41779;52.360;31.026;2024-02-21T06:14:51;9.4;7.4;5.4
55857;PMS7003;41779;52.360;31.026;2024-02-21T06:20:03;11.4;8.4;6.6
55857;PMS7003;41779;52.360;31.026;2024-02-21T06:25:03;11.8;9.3;7.5
55857;PMS7003;41779;52.360;31.026;2024-02-21T06:29:39;11.8;9.3;7.5
55857;PMS7003;41779;52.360;31.026;2024-02-21T06:35:03;13.8;11.4;8.2
55857;PMS7003;41779;52.360;31.026;2024-02-21T06:39:39;13.8;11.4;8.2
55857;PMS7003;41779;52.360;31.026;2024-02-21T06:44:49;12.4;10.6;8.4
55857;PMS7003;41779;52.360;31.026;2024-02-21T06:49:15;13.2;9.4;7.6
55857;PMS7003;41779;52.360;31.026;2024-02-21T06:54:15;8.6;8.4;6.8
55857;PMS7003;41779;52.360;31.026;2024-02-21T06:59:16;13.2;7.4;5.8
55857;PMS7003;41779;52.360;31.026;2024-02-21T07:04:23;13;8.4;6.8
55857;PMS7003;41779;52.360;31.026;2024-02-21T07:09:23;12.4;8.2;6.8
55857;PMS7003;41779;52.360;31.026;2024-02-21T07:14:23;11.5;9.3;7.3
55857;PMS7003;41779;52.360;31.026;2024-02-21T07:20:05;11;9.4;7.2
55857;PMS7003;41779;52.360;31.026;2024-02-21T07:24:49;11;9.4;7.2
55857;PMS7003;41779;52.360;31.026;2024-02-21T07:30:06;12.2;10.6;7.4
55857;PMS7003;41779;52.360;31.026;2024-02-21T07:34:51;12.2;10.6;7.4
55857;PMS7003;41779;52.360;31.026;2024-02-21T07:39:53;16.3;11.3;7.8
55857;PMS7003;41779;52.360;31.026;2024-02-21T07:44:27;13;9.8;8.4
55857;PMS7003;41779;52.360;31.026;2024-02-21T07:49:17;12.6;8.8;6.6
55857;PMS7003;41779;52.360;31.026;2024-02-21T07:55:05;12.6;10;7.2
55857;PMS7003;41779;52.360;31.026;2024-02-21T08:00:05;12.6;10.6;7.6
55857;PMS7003;41779;52.360;31.026;2024-02-21T08:04:31;12.6;10.6;7.6
55857;PMS7003;41779;52.360;31.026;2024-02-21T08:10:05;14.4;11.4;8.2
55857;PMS7003;41779;52.360;31.026;2024-02-21T08:14:53;14.4;11.4;8.2
55857;PMS7003;41779;52.360;31.026;2024-02-21T08:19:51;17.3;13;9
55857;PMS7003;41779;52.360;31.026;2024-02-21T08:24:57;15.8;11.2;9
55857;PMS7003;41779;52.360;31.026;2024-02-21T08:29:33;15.6;12.4;9
55857;PMS7003;41779;52.360;31.026;2024-02-21T08:34:27;14.4;10.6;8.4
55857;PMS7003;41779;52.360;31.026;2024-02-21T08:39:30;13.3;10.3;8.3
55857;PMS7003;41779;52.360;31.026;2024-02-21T08:44:27;17;11.6;8.8
55857;PMS7003;41779;52.360;31.026;2024-02-21T08:49:15;15.4;13.6;8.6
55857;PMS7003;41779;52.360;31.026;2024-02-21T08:54:45;15.4;11;9.4
55857;PMS7003;41779;52.360;31.026;2024-02-21T08:59:33;11.8;10.2;8
55857;PMS7003;41779;52.360;31.026;2024-02-21T09:05:05;13;8.6;6.8
55857;PMS7003;41779;52.360;31.026;2024-02-21T09:10:01;13;8.6;6.8
55857;PMS7003;41779;52.360;31.026;2024-02-21T09:14:31;12.4;8.4;6.6
55857;PMS7003;41779;52.360;31.026;2024-02-21T09:19:33;12.8;9;6.6
55857;PMS7003;41779;52.360;31.026;2024-02-21T09:24:53;12.4;8;6.4
55857;PMS7003;41779;52.360;31.026;2024-02-21T09:29:17;9.2;5.8;4.4
55857;PMS7003;41779;52.360;31.026;2024-02-21T09:34:35;8.4;6.6;5.4
55857;PMS7003;41779;52.360;31.026;2024-02-21T09:40:05;9.8;6.8;5.8
55857;PMS7003;41779;52.360;31.026;2024-02-21T09:44:43;9.8;6.8;5.8
55857;PMS7003;41779;52.360;31.026;2024-02-21T09:49:53;7.8;6.8;5
55857;PMS7003;41779;52.360;31.026;2024-02-21T09:54:23;8.8;6;5.2
55857;PMS7003;41779;52.360;31.026;2024-02-21T09:59:53;9;5.8;4.6
55857;PMS7003;41779;52.360;31.026;2024-02-21T10:04:31;8.6;6;4.8
55857;PMS7003;41779;52.360;31.026;2024-02-21T10:09:27;6.8;5.4;4.2
55857;PMS7003;41779;52.360;31.026;2024-02-21T10:14:59;11.2;8.6;6.4
55857;PMS7003;41779;52.360;31.026;2024-02-21T10:19:35;9.5;7.3;5.5
55857;PMS7003;41779;52.360;31.026;2024-02-21T10:24:37;12.4;8.8;7.2
55857;PMS7003;41779;52.360;31.026;2024-02-21T10:29:15;15.8;13.6;9.6
55857;PMS7003;41779;52.360;31.026;2024-02-21T10:34:25;14.6;10.8;7.6
55857;PMS7003;41779;52.360;31.026;2024-02-21T10:40:05;19.6;15.4;12.2
55857;PMS7003;41779;52.360;31.026;2024-02-21T10:45:05;12.8;9.3;8.3
55857;PMS7003;41779;52.360;31.026;2024-02-21T10:50:05;8.6;7.2;5.4
55857;PMS7003;41779;52.360;31.026;2024-02-21T10:55:03;8.6;7.2;5.4
55857;PMS7003;41779;52.360;31.026;2024-02-21T11:00:05;13;9.2;7.4
55857;PMS7003;41779;52.360;31.026;2024-02-21T11:04:55;13;9.2;7.4
55857;PMS7003;41779;52.360;31.026;2024-02-21T11:09:35;14.6;11;9
55857;PMS7003;41779;52.360;31.026;2024-02-21T11:15:05;18.2;15.2;11
55857;PMS7003;41779;52.360;31.026;2024-02-21T11:19:27;18.2;15.2;11
55857;PMS7003;41779;52.360;31.026;2024-02-21T11:25:06;29;20.6;13.8
55857;PMS7003;41779;52.360;31.026;2024-02-21T11:29:23;29;20.6;13.8
55857;PMS7003;41779;52.360;31.026;2024-02-21T11:34:55;20.2;14.4;10.2
55857;PMS7003;41779;52.360;31.026;2024-02-21T11:39:19;19.6;15.4;11.4
55857;PMS7003;41779;52.360;31.026;2024-02-21T11:44:15;15.6;12.4;8.8
55857;PMS7003;41779;52.360;31.026;2024-02-21T11:49:49;19.5;12.5;9.3
55857;PMS7003;41779;52.360;31.026;2024-02-21T11:54:33;16.6;15.4;11.2
55857;PMS7003;41779;52.360;31.026;2024-02-21T11:59:35;18.8;13.6;10.4
55857;PMS7003;41779;52.360;31.026;2024-02-21T12:04:23;14.2;11;8.4
55857;PMS7003;41779;52.360;31.026;2024-02-21T12:09:53;15.4;11.6;9.2
55857;PMS7003;41779;52.360;31.026;2024-02-21T12:15:06;15.5;12;9.5
55857;PMS7003;41779;52.360;31.026;2024-02-21T12:20:05;18;11.2;8.4
55857;PMS7003;41779;52.360;31.026;2024-02-21T12:24:35;18;11.2;8.4
55857;PMS7003;41779;52.360;31.026;2024-02-21T12:29:45;18.3;15;11
55857;PMS7003;41779;52.360;31.026;2024-02-21T12:35:03;12.2;10.4;8.6
55857;PMS7003;41779;52.360;31.026;2024-02-21T12:39:53;12.2;10.4;8.6
55857;PMS7003;41779;52.360;31.026;2024-02-21T12:44:45;16.2;11.2;9
55857;PMS7003;41779;52.360;31.026;2024-02-21T12:49:45;15.8;11.6;8.6
55857;PMS7003;41779;52.360;31.026;2024-02-21T12:54:35;18.2;13.6;9.8
55857;PMS7003;41779;52.360;31.026;2024-02-21T13:00:05;21.4;15.2;9.8
55857;PMS7003;41779;52.360;31.026;2024-02-21T13:04:43;21.4;15.2;9.8
55857;PMS7003;41779;52.360;31.026;2024-02-21T13:10:05;18.4;14.6;10.8
55857;PMS7003;41779;52.360;31.026;2024-02-21T13:14:51;18.4;14.6;10.8
55857;PMS7003;41779;52.360;31.026;2024-02-21T13:19:35;17.8;13.8;9.4
55857;PMS7003;41779;52.360;31.026;2024-02-21T13:24:15;20.7;15.3;10.3
55857;PMS7003;41779;52.360;31.026;2024-02-21T13:29:15;15;11.6;9.8
55857;PMS7003;41779;52.360;31.026;2024-02-21T13:34:15;14.8;11.8;8.2
55857;PMS7003;41779;52.360;31.026;2024-02-21T13:39:15;17.8;15.4;11
55857;PMS7003;41779;52.360;31.026;2024-02-21T13:44:15;18.2;12.8;9.4
55857;PMS7003;41779;52.360;31.026;2024-02-21T13:49:51;18.6;13;9.2
55857;PMS7003;41779;52.360;31.026;2024-02-21T13:54:57;14.8;10.6;7.8
55857;PMS7003;41779;52.360;31.026;2024-02-21T13:59:31;18;13.3;9
55857;PMS7003;41779;52.360;31.026;2024-02-21T14:05:07;26.8;20;12.8
55857;PMS7003;41779;52.360;31.026;2024-02-21T14:09:53;26.8;20;12.8
55857;PMS7003;41779;52.360;31.026;2024-02-21T14:15:07;17.6;14.4;10.2
55857;PMS7003;41779;52.360;31.026;2024-02-21T14:19:27;17.6;14.4;10.2
55857;PMS7003;41779;52.360;31.026;2024-02-21T14:24:55;14.8;10.4;8.2
55857;PMS7003;41779;52.360;31.026;2024-02-21T14:30:07;18.6;13;8.8
55857;PMS7003;41779;52.360;31.026;2024-02-21T14:35:07;11;9;6.6
55857;PMS7003;41779;52.360;31.026;2024-02-21T14:39:15;11;9;6.6
55857;PMS7003;41779;52.360;31.026;2024-02-21T14:44:51;18.6;12.6;8.8
55857;PMS7003;41779;52.360;31.026;2024-02-21T14:50:05;18.8;14;9
55857;PMS7003;41779;52.360;31.026;2024-02-21T14:54:33;18.8;14;9
55857;PMS7003;41779;52.360;31.026;2024-02-21T15:00:06;19;14;9.4
55857;PMS7003;41779;52.360;31.026;2024-02-21T15:04:15;19;14;9.4
55857;PMS7003;41779;52.360;31.026;2024-02-21T15:09:27;22.4;16;11.8
55857;PMS7003;41779;52.360;31.026;2024-02-21T15:29:35;12;10;8
55857;PMS7003;41779;52.360;31.026;2024-02-21T15:34:37;18;13.8;10.5
55857;PMS7003;41779;52.360;31.026;2024-02-21T15:40:05;20.4;15.2;11
55857;PMS7003;41779;52.360;31.026;2024-02-21T15:44:19;20.4;15.2;11
55857;PMS7003;41779;52.360;31.026;2024-02-21T15:49:15;24;19.6;14
55857;PMS7003;41779;52.360;31.026;2024-02-21T15:54:23;26.4;18.2;12.8
55857;PMS7003;41779;52.360;31.026;2024-02-21T15:59:45;20.3;14.5;12.5
55857;PMS7003;41779;52.360;31.026;2024-02-21T16:04:55;31.4;22.6;15.2
55857;PMS7003;41779;52.360;31.026;2024-02-21T16:09:25;31;22.4;15
55857;PMS7003;41779;52.360;31.026;2024-02-21T16:14:43;29.8;23.2;16.6
55857;PMS7003;41779;52.360;31.026;2024-02-21T16:19:17;31.4;23;15.4
55857;PMS7003;41779;52.360;31.026;2024-02-21T16:25:07;24.4;19;13.4
55857;PMS7003;41779;52.360;31.026;2024-02-21T16:29:15;24.4;19;13.4
55857;PMS7003;41779;52.360;31.026;2024-02-21T16:35:07;24.2;18.6;13.2
55857;PMS7003;41779;52.360;31.026;2024-02-21T16:39:15;24.2;18.6;13.2
55857;PMS7003;41779;52.360;31.026;2024-02-21T16:44:29;30.4;22;13.6
55857;PMS7003;41779;52.360;31.026;2024-02-21T16:49:15;29.6;23;15.6
55857;PMS7003;41779;52.360;31.026;2024-02-21T16:54:47;26.6;18.6;12.8
55857;PMS7003;41779;52.360;31.026;2024-02-21T16:59:23;21.8;16.5;11
55857;PMS7003;41779;52.360;31.026;2024-02-21T17:04:47;26;17.4;11.8
55857;PMS7003;41779;52.360;31.026;2024-02-21T17:09:31;21;15.6;11
55857;PMS7003;41779;52.360;31.026;2024-02-21T17:14:53;21;14.4;10
55857;PMS7003;41779;52.360;31.026;2024-02-21T17:19:51;21.4;15.2;10.6
55857;PMS7003;41779;52.360;31.026;2024-02-21T17:24:35;16.6;12.8;9.4
55857;PMS7003;41779;52.360;31.026;2024-02-21T17:29:23;18.2;12.4;8.8
55857;PMS7003;41779;52.360;31.026;2024-02-21T17:34:47;19.6;15.2;10.6
55857;PMS7003;41779;52.360;31.026;2024-02-21T17:39:57;23.6;15.2;11
55857;PMS7003;41779;52.360;31.026;2024-02-21T17:44:37;26;18.6;12.8
55857;PMS7003;41779;52.360;31.026;2024-02-21T17:49:57;35.8;29.6;18.8
55857;PMS7003;41779;52.360;31.026;2024-02-21T17:54:51;36.8;30;19.2
55857;PMS7003;41779;52.360;31.026;2024-02-21T18:00:07;30.5;21.5;16
55857;PMS7003;41779;52.360;31.026;2024-02-21T18:04:41;30.5;21.5;16
55857;PMS7003;41779;52.360;31.026;2024-02-21T18:09:57;28;21.6;14.2
55857;PMS7003;41779;52.360;31.026;2024-02-21T18:14:41;21.8;17.6;11.8
55857;PMS7003;41779;52.360;31.026;2024-02-21T18:19:37;20;13.2;10
55857;PMS7003;41779;52.360;31.026;2024-02-21T18:24:41;18;14.8;10.8
55857;PMS7003;41779;52.360;31.026;2024-02-21T18:29:29;17.4;14;10
55857;PMS7003;41779;52.360;31.026;2024-02-21T18:35:07;21.2;14.6;9.4
55857;PMS7003;41779;52.360;31.026;2024-02-21T18:39:47;21.2;14.6;9.4
55857;PMS7003;41779;52.360;31.026;2024-02-21T18:44:51;18.4;13.8;10.8
55857;PMS7003;41779;52.360;31.026;2024-02-21T18:50:07;21;15.4;12
55857;PMS7003;41779;52.360;31.026;2024-02-21T18:55:07;20.8;17.6;12.6
55857;PMS7003;41779;52.360;31.026;2024-02-21T18:59:15;20.8;17.6;12.6
55857;PMS7003;41779;52.360;31.026;2024-02-21T19:04:37;26.5;21;13.5
55857;PMS7003;41779;52.360;31.026;2024-02-21T19:10:07;20.8;15.6;11.4
55857;PMS7003;41779;52.360;31.026;2024-02-21T19:14:23;20.8;15.6;11.4
55857;PMS7003;41779;52.360;31.026;2024-02-21T19:19:15;19.2;15.2;11.6
55857;PMS7003;41779;52.360;31.026;2024-02-21T19:24:49;25;19.4;12.8
55857;PMS7003;41779;52.360;31.026;2024-02-21T19:29:37;22.4;16.6;12
55857;PMS7003;41779;52.360;31.026;2024-02-21T19:35:07;18.8;13;8.6
55857;PMS7003;41779;52.360;31.026;2024-02-21T19:39:41;18.8;13;8.6
55857;PMS7003;41779;52.360;31.026;2024-02-21T19:44:53;15.2;12.2;9.4
55857;PMS7003;41779;52.360;31.026;2024-02-21T19:49:41;19.4;14;9.8
55857;PMS7003;41779;52.360;31.026;2024-02-21T19:54:51;18;12.4;9.4
55857;PMS7003;41779;52.360;31.026;2024-02-21T19:59:23;19.4;14.2;10.2
55857;PMS7003;41779;52.360;31.026;2024-02-21T20:04:31;17.5;12.5;8.8
55857;PMS7003;41779;52.360;31.026;2024-02-21T20:09:23;18;12.6;9.8
55857;PMS7003;41779;52.360;31.026;2024-02-21T20:14:15;19;14;10.4
55857;PMS7003;41779;52.360;31.026;2024-02-21T20:19:23;30.4;20.6;13.2
55857;PMS7003;41779;52.360;31.026;2024-02-21T20:24:31;31;23.6;15.8
55857;PMS7003;41779;52.360;31.026;2024-02-21T20:30:07;29.6;19.4;12.6
55857;PMS7003;41779;52.360;31.026;2024-02-21T20:34:23;29.6;19.4;12.6
55857;PMS7003;41779;52.360;31.026;2024-02-21T20:40:07;18.8;12.6;10.4
55857;PMS7003;41779;52.360;31.026;2024-02-21T20:44:37;18.8;12.6;10.4
55857;PMS7003;41779;52.360;31.026;2024-02-21T20:49:57;19.4;13.6;9.4
55857;PMS7003;41779;52.360;31.026;2024-02-21T20:54:15;15.2;13;9
55857;PMS7003;41779;52.360;31.026;2024-02-21T20:59:31;15.8;12.2;8.2
55857;PMS7003;41779;52.360;31.026;2024-02-21T21:05:05;18.4;13.2;9.4
55857;PMS7003;41779;52.360;31.026;2024-02-21T21:09:47;18.4;13.2;9.4
55857;PMS7003;41779;52.360;31.026;2024-02-21T21:14:39;17.8;15;9.8
55857;PMS7003;41779;52.360;31.026;2024-02-21T21:20:05;15.6;11.2;7.8
55857;PMS7003;41779;52.360;31.026;2024-02-21T21:24:15;15.6;11.2;7.8
55857;PMS7003;41779;52.360;31.026;2024-02-21T21:29:49;20.8;12.8;9.4
55857;PMS7003;41779;52.360;31.026;2024-02-21T21:34:31;15.2;10.8;7.8
55857;PMS7003;41779;52.360;31.026;2024-02-21T21:39:21;19.2;13;10
55857;PMS7003;41779;52.360;31.026;2024-02-21T21:44:15;16.4;12.6;8.8
55857;PMS7003;41779;52.360;31.026;2024-02-21T21:49:25;12.8;10;7.8
55857;PMS7003;41779;52.360;31.026;2024-02-21T21:54:55;15.2;10.8;8.8
55857;PMS7003;41779;52.360;31.026;2024-02-21T21:59:15;12.8;8.6;5.8
55857;PMS7003;41779;52.360;31.026;2024-02-21T22:05:05;13.2;9.6;7.2
55857;PMS7003;41779;52.360;31.026;2024-02-21T22:09:15;13.2;9.6;7.2
55857;PMS7003;41779;52.360;31.026;2024-02-21T22:15:05;12.4;9.8;7
55857;PMS7003;41779;52.360;31.026;2024-02-21T22:19:41;12.4;9.8;7
55857;PMS7003;41779;52.360;31.026;2024-02-21T22:24:55;16;10.6;7.6
55857;PMS7003;41779;52.360;31.026;2024-02-21T22:29:15;12.4;10.4;7.6
55857;PMS7003;41779;52.360;31.026;2024-02-21T22:34:47;13;8.2;6.4
55857;PMS7003;41779;52.360;31.026;2024-02-21T22:40:07;11.2;9;6.2
55857;PMS7003;41779;52.360;31.026;2024-02-21T22:45:07;14.2;8.8;6
55857;PMS7003;41779;52.360;31.026;2024-02-21T22:49:23;14.2;8.8;6
55857;PMS7003;41779;52.360;31.026;2024-02-21T22:55:07;11.2;7.8;5.6
55857;PMS7003;41779;52.360;31.026;2024-02-21T23:00:07;10.8;8.4;6.2
55857;PMS7003;41779;52.360;31.026;2024-02-21T23:04:53;10.8;8.4;6.2
55857;PMS7003;41779;52.360;31.026;2024-02-21T23:10:09;10.8;6.4;4.8
55857;PMS7003;41779;52.360;31.026;2024-02-21T23:14:23;10.8;6.4;4.8
55857;PMS7003;41779;52.360;31.026;2024-02-21T23:19:15;9.8;7;5
55857;PMS7003;41779;52.360;31.026;2024-02-21T23:24:23;10.8;6.4;5.2
55857;PMS7003;41779;52.360;31.026;2024-02-21T23:29:37;8.4;6.6;5
55857;PMS7003;41779;52.360;31.026;2024-02-21T23:34:15;8.2;6;4.2
55857;PMS7003;41779;52.360;31.026;2024-02-21T23:39:47;7.2;5;4
55857;PMS7003;41779;52.360;31.026;2024-02-21T23:44:33;6;5;4.6
55857;PMS7003;41779;52.360;31.026;2024-02-21T23:50:09;6.6;5.4;4
55857;PMS7003;41779;52.360;31.026;2024-02-21T23:54:53;6.6;5.4;4
55857;PMS7003;41779;52.360;31.026;2024-02-21T23:59:23;8;4.8;3.8
